Time;durP1;ratioP1;P1;durP2;ratioP2;P2;SDS_P1;SDS_P2;PMS_P1;PMS_P2;Temp;Humidity;BMP_temperature;BMP_pressure;BME280_temperature;BME280_humidity;BME280_pressure;Samples;Min_cycle;Max_cycle;Signal;HPM_P1;HPM_P2
2021/03/03 00:00:49;;;;;;;30.40;24.30;;;6.90;99.90;;;;;;5037233;28;20479;-75
2021/03/03 00:03:15;;;;;;;31.57;24.07;;;6.90;99.90;;;;;;5040615;28;20798;-74
2021/03/03 00:05:41;;;;;;;31.10;24.80;;;6.80;99.90;;;;;;5036005;28;20489;-73
2021/03/03 00:08:08;;;;;;;33.87;23.87;;;6.80;99.90;;;;;;5041873;28;20826;-74
2021/03/03 00:10:34;;;;;;;28.37;23.30;;;6.80;99.90;;;;;;5037714;28;20915;-75
2021/03/03 00:13:02;;;;;;;28.63;23.33;;;6.70;99.90;;;;;;5037197;28;20968;-73
2021/03/03 00:15:28;;;;;;;29.43;23.63;;;6.50;99.90;;;;;;5037294;28;20464;-73
2021/03/03 00:17:54;;;;;;;33.90;24.73;;;6.50;99.90;;;;;;5033771;28;20456;-73
2021/03/03 00:20:21;;;;;;;26.97;23.80;;;6.50;99.90;;;;;;5037766;28;20849;-73
2021/03/03 00:22:48;;;;;;;32.70;25.93;;;6.50;99.90;;;;;;5035396;28;20449;-73
2021/03/03 00:25:14;;;;;;;33.90;25.27;;;6.40;99.90;;;;;;5038724;28;20464;-74
2021/03/03 00:27:40;;;;;;;32.30;25.23;;;6.30;99.90;;;;;;5036089;28;20466;-73
2021/03/03 00:30:10;;;;;;;28.03;25.03;;;6.30;99.90;;;;;;5030044;28;22392;-72
2021/03/03 00:32:36;;;;;;;30.53;22.90;;;6.30;99.90;;;;;;5039154;28;20463;-73
2021/03/03 00:35:03;;;;;;;32.70;25.60;;;6.20;99.90;;;;;;5037062;28;20986;-74
2021/03/03 00:37:29;;;;;;;27.83;24.47;;;6.20;99.90;;;;;;5036965;28;20464;-74
2021/03/03 00:39:56;;;;;;;35.00;25.13;;;6.20;99.90;;;;;;5042430;28;20552;-74
2021/03/03 00:42:22;;;;;;;29.50;24.97;;;6.10;99.90;;;;;;5038784;28;20472;-74
2021/03/03 00:44:49;;;;;;;31.60;25.20;;;6.00;99.90;;;;;;5038603;28;20480;-73
2021/03/03 00:47:16;;;;;;;30.27;27.03;;;5.90;99.90;;;;;;5038974;28;20994;-73
2021/03/03 00:49:42;;;;;;;36.37;26.10;;;5.90;99.90;;;;;;5039768;28;20474;-73
2021/03/03 00:52:08;;;;;;;35.07;26.23;;;5.90;99.90;;;;;;5037795;28;20464;-74
2021/03/03 00:54:35;;;;;;;33.00;25.67;;;5.80;99.90;;;;;;5037584;28;20469;-74
2021/03/03 00:57:02;;;;;;;36.83;27.97;;;5.70;99.90;;;;;;5040968;28;20954;-74
2021/03/03 00:59:28;;;;;;;31.80;27.40;;;5.60;99.90;;;;;;5031804;28;20535;-73
2021/03/03 01:01:55;;;;;;;35.83;26.30;;;5.50;99.90;;;;;;5041554;28;20841;-73
2021/03/03 01:04:22;;;;;;;28.83;25.73;;;5.50;99.90;;;;;;5041079;28;20657;-73
2021/03/03 01:06:49;;;;;;;35.30;26.40;;;5.50;99.90;;;;;;5039269;28;20514;-72
2021/03/03 01:09:15;;;;;;;40.20;27.50;;;5.50;99.90;;;;;;5035994;28;20472;-73
2021/03/03 01:11:41;;;;;;;28.53;25.60;;;5.50;99.90;;;;;;5040993;28;20464;-74
2021/03/03 01:14:08;;;;;;;30.27;27.07;;;5.40;99.90;;;;;;5041136;28;20946;-74
2021/03/03 01:16:34;;;;;;;31.43;26.40;;;5.40;99.90;;;;;;5050626;28;20464;-73
2021/03/03 01:19:00;;;;;;;28.77;25.63;;;5.30;99.90;;;;;;5041799;28;20457;-74
2021/03/03 01:21:28;;;;;;;36.50;26.47;;;5.30;99.90;;;;;;5035828;28;20958;-73
2021/03/03 01:23:54;;;;;;;30.97;25.80;;;5.30;99.90;;;;;;5033324;28;20472;-74
2021/03/03 01:26:21;;;;;;;40.73;27.03;;;5.20;99.90;;;;;;5038480;28;20482;-73
2021/03/03 01:28:47;;;;;;;37.67;26.77;;;5.20;99.90;;;;;;5041560;28;20916;-73
2021/03/03 01:31:13;;;;;;;35.40;27.57;;;5.20;99.90;;;;;;5039577;28;20470;-73
2021/03/03 01:33:39;;;;;;;36.83;25.47;;;5.20;99.90;;;;;;5037560;28;20472;-73
2021/03/03 01:36:07;;;;;;;29.23;26.43;;;5.10;99.90;;;;;;5039030;28;20471;-74
2021/03/03 01:38:34;;;;;;;31.40;27.20;;;5.10;99.90;;;;;;5030604;28;20469;-74
2021/03/03 01:41:01;;;;;;;35.53;26.57;;;5.10;99.90;;;;;;5044474;28;20479;-73
2021/03/03 01:43:31;;;;;;;30.47;26.30;;;5.10;99.90;;;;;;5041036;28;20977;-73
2021/03/03 01:45:59;;;;;;;28.90;25.77;;;5.10;99.90;;;;;;5045572;28;20456;-73
2021/03/03 01:48:25;;;;;;;32.20;26.80;;;5.10;99.90;;;;;;5034031;28;21031;-73
2021/03/03 01:50:53;;;;;;;29.27;26.10;;;5.10;99.90;;;;;;5034154;28;20472;-72
2021/03/03 01:53:20;;;;;;;36.17;27.43;;;5.10;99.90;;;;;;5033994;28;20464;-72
2021/03/03 01:55:47;;;;;;;36.07;27.90;;;5.10;99.90;;;;;;5031830;28;20472;-73
2021/03/03 01:58:14;;;;;;;33.87;28.27;;;5.10;99.90;;;;;;5037887;28;21038;-72
2021/03/03 02:00:40;;;;;;;33.43;25.90;;;5.00;99.90;;;;;;5040751;28;20977;-72
2021/03/03 02:03:07;;;;;;;35.50;29.07;;;4.90;99.90;;;;;;5036740;28;20462;-73
2021/03/03 02:05:34;;;;;;;34.13;27.77;;;4.90;99.90;;;;;;5033848;28;20574;-74
2021/03/03 02:08:06;;;;;;;31.40;26.77;;;4.90;99.90;;;;;;5036139;28;20471;-74
2021/03/03 02:10:39;;;;;;;30.80;27.17;;;4.90;99.90;;;;;;5036566;28;20847;-73
2021/03/03 02:13:11;;;;;;;29.93;26.77;;;4.80;99.90;;;;;;5039301;28;20471;-72
2021/03/03 02:15:41;;;;;;;31.90;26.70;;;4.70;99.90;;;;;;5036754;28;20950;-73
2021/03/03 02:18:10;;;;;;;46.53;28.50;;;4.70;99.90;;;;;;5036061;28;21034;-72
2021/03/03 02:20:47;;;;;;;42.53;27.60;;;4.70;99.90;;;;;;5034932;28;20587;-73
2021/03/03 02:23:19;;;;;;;52.70;30.73;;;4.60;99.90;;;;;;5035089;28;20488;-73
2021/03/03 02:25:47;;;;;;;37.73;28.63;;;4.60;99.90;;;;;;5038585;28;20512;-73
2021/03/03 02:28:15;;;;;;;34.70;28.50;;;4.50;99.90;;;;;;5037165;28;20465;-73
2021/03/03 02:30:44;;;;;;;29.17;26.07;;;4.50;99.90;;;;;;5040956;28;20464;-72
2021/03/03 02:33:13;;;;;;;39.73;28.20;;;4.50;99.90;;;;;;5035533;28;20460;-73
2021/03/03 02:35:43;;;;;;;31.33;27.97;;;4.50;99.90;;;;;;5035539;28;20465;-74
2021/03/03 02:38:11;;;;;;;31.70;26.07;;;4.50;99.90;;;;;;5036019;28;20974;-73
2021/03/03 02:40:41;;;;;;;29.27;26.43;;;4.40;99.90;;;;;;5037260;28;20542;-73
2021/03/03 02:43:13;;;;;;;48.47;28.10;;;4.40;99.90;;;;;;5043829;28;20491;-73
2021/03/03 02:45:40;;;;;;;31.97;26.17;;;4.30;99.90;;;;;;5043906;28;20459;-73
2021/03/03 02:48:09;;;;;;;32.73;28.60;;;4.30;99.90;;;;;;5039241;28;20459;-73
2021/03/03 02:50:36;;;;;;;37.70;28.07;;;4.30;99.90;;;;;;5031791;28;20556;-74
2021/03/03 02:53:02;;;;;;;36.93;28.63;;;4.30;99.90;;;;;;5037098;28;20471;-73
2021/03/03 02:55:30;;;;;;;38.97;27.07;;;4.20;99.90;;;;;;5032805;28;20805;-73
2021/03/03 02:57:58;;;;;;;36.83;28.30;;;4.20;99.90;;;;;;5037524;28;20494;-73
2021/03/03 03:00:29;;;;;;;35.17;27.43;;;4.20;99.90;;;;;;5036698;28;21029;-73
2021/03/03 03:03:02;;;;;;;38.37;27.20;;;4.20;99.90;;;;;;5038007;28;20507;-74
2021/03/03 03:05:31;;;;;;;31.43;26.70;;;4.20;99.90;;;;;;5039289;28;20510;-74
2021/03/03 03:07:59;;;;;;;40.23;28.53;;;4.10;99.90;;;;;;5038348;28;20459;-73
2021/03/03 03:10:27;;;;;;;41.53;28.27;;;4.20;99.90;;;;;;5037733;28;20480;-73
2021/03/03 03:12:55;;;;;;;33.13;25.13;;;4.30;99.90;;;;;;5030352;28;20877;-73
2021/03/03 03:15:24;;;;;;;31.67;26.37;;;4.30;99.90;;;;;;5036345;28;20456;-73
2021/03/03 03:17:58;;;;;;;41.33;25.97;;;4.20;99.90;;;;;;5031278;28;20525;-72
2021/03/03 03:20:28;;;;;;;39.83;24.73;;;4.20;99.90;;;;;;5036760;28;20489;-73
2021/03/03 03:22:55;;;;;;;39.43;25.63;;;4.10;99.90;;;;;;5036991;28;20974;-73
2021/03/03 03:25:22;;;;;;;39.13;26.20;;;4.10;99.90;;;;;;5037177;28;20541;-72
2021/03/03 03:27:50;;;;;;;28.90;24.57;;;4.10;99.90;;;;;;5032255;28;20834;-73
2021/03/03 03:30:18;;;;;;;29.70;25.90;;;4.00;99.90;;;;;;5034605;28;20490;-73
2021/03/03 03:32:44;;;;;;;28.57;24.33;;;4.00;99.90;;;;;;5038126;28;20546;-73
2021/03/03 03:35:13;;;;;;;36.17;27.30;;;4.10;99.90;;;;;;5041173;28;20471;-74
2021/03/03 03:37:40;;;;;;;42.43;27.60;;;4.10;99.90;;;;;;5037177;28;20464;-74
2021/03/03 03:40:08;;;;;;;30.70;25.73;;;4.10;99.90;;;;;;5047206;28;20478;-73
2021/03/03 03:42:37;;;;;;;38.87;26.67;;;4.10;99.90;;;;;;5040716;28;20960;-73
2021/03/03 03:45:05;;;;;;;38.37;27.63;;;4.10;99.90;;;;;;5038647;28;20464;-73
2021/03/03 03:47:32;;;;;;;31.57;25.57;;;4.10;99.90;;;;;;5037919;28;20580;-73
2021/03/03 03:50:03;;;;;;;42.93;28.73;;;4.10;99.90;;;;;;5041433;28;20842;-74
2021/03/03 03:52:31;;;;;;;32.47;26.70;;;4.10;99.90;;;;;;5031706;28;21093;-75
2021/03/03 03:54:58;;;;;;;29.37;25.13;;;4.20;99.90;;;;;;5044456;28;20468;-74
2021/03/03 03:57:24;;;;;;;37.20;27.37;;;4.10;99.90;;;;;;5041118;28;20471;-74
2021/03/03 03:59:51;;;;;;;43.97;29.00;;;4.10;99.90;;;;;;5039650;28;20471;-74
2021/03/03 04:02:18;;;;;;;43.00;28.97;;;4.10;99.90;;;;;;5039401;28;20823;-74
2021/03/03 04:04:44;;;;;;;29.93;26.63;;;4.00;99.90;;;;;;5042168;28;20460;-74
2021/03/03 04:07:11;;;;;;;30.47;25.90;;;3.90;99.90;;;;;;5045221;28;20468;-74
2021/03/03 04:09:38;;;;;;;41.50;28.23;;;4.00;99.90;;;;;;5038652;28;20975;-74
2021/03/03 04:12:07;;;;;;;39.60;28.60;;;3.90;99.90;;;;;;5041486;28;20470;-74
2021/03/03 04:14:34;;;;;;;34.80;28.67;;;4.00;99.90;;;;;;5041292;28;20550;-74
2021/03/03 04:17:00;;;;;;;46.43;28.57;;;4.00;99.90;;;;;;5039240;28;20470;-74
2021/03/03 04:19:27;;;;;;;30.27;26.90;;;4.10;99.90;;;;;;5037545;28;20977;-74
2021/03/03 04:21:53;;;;;;;32.20;27.03;;;4.20;99.90;;;;;;5037536;28;20495;-74
2021/03/03 04:24:21;;;;;;;36.93;29.40;;;4.20;99.90;;;;;;5037943;28;20460;-74
2021/03/03 04:26:48;;;;;;;39.80;29.50;;;4.20;99.90;;;;;;5034713;28;20516;-74
2021/03/03 04:29:14;;;;;;;39.20;28.13;;;4.20;99.90;;;;;;5042423;28;20460;-74
2021/03/03 04:31:41;;;;;;;33.70;27.97;;;4.10;99.90;;;;;;5044552;28;20459;-75
2021/03/03 04:34:07;;;;;;;46.47;28.53;;;4.20;99.90;;;;;;5039948;28;20460;-74
2021/03/03 04:36:34;;;;;;;45.60;27.30;;;4.30;99.90;;;;;;5037942;28;20836;-72
2021/03/03 04:39:00;;;;;;;41.40;29.40;;;4.30;99.90;;;;;;5041381;28;20470;-72
2021/03/03 04:41:27;;;;;;;36.93;27.50;;;4.40;99.90;;;;;;5039598;28;20531;-74
2021/03/03 04:43:55;;;;;;;44.13;28.17;;;4.40;99.90;;;;;;5030951;28;20469;-73
2021/03/03 04:46:21;;;;;;;49.00;28.17;;;4.40;99.90;;;;;;5034111;28;20471;-74
2021/03/03 04:48:47;;;;;;;45.07;27.27;;;4.30;99.90;;;;;;5037574;28;20472;-74
2021/03/03 04:51:13;;;;;;;31.10;27.60;;;4.40;99.90;;;;;;5038926;28;20812;-74
2021/03/03 04:53:40;;;;;;;48.77;26.33;;;4.40;99.90;;;;;;5042842;28;20517;-74
2021/03/03 04:56:06;;;;;;;37.43;26.80;;;4.40;99.90;;;;;;5034817;28;20830;-73
2021/03/03 04:58:32;;;;;;;35.00;27.60;;;4.40;99.90;;;;;;5041048;28;20459;-74
2021/03/03 05:00:59;;;;;;;35.20;26.70;;;4.40;99.90;;;;;;5032862;28;20495;-74
2021/03/03 05:03:26;;;;;;;32.90;26.00;;;4.40;99.90;;;;;;5039394;28;20459;-75
2021/03/03 05:05:53;;;;;;;61.70;28.43;;;4.40;99.90;;;;;;5039792;28;20517;-74
2021/03/03 05:08:20;;;;;;;37.80;27.80;;;4.30;99.90;;;;;;5035269;28;20543;-74
2021/03/03 05:10:47;;;;;;;32.20;27.33;;;4.30;99.90;;;;;;5037554;28;20488;-74
2021/03/03 05:13:17;;;;;;;32.83;27.50;;;4.20;99.90;;;;;;5040050;28;20465;-74
2021/03/03 05:15:44;;;;;;;36.07;27.40;;;4.30;99.90;;;;;;5038328;28;20456;-72
2021/03/03 05:18:12;;;;;;;41.50;27.50;;;4.30;99.90;;;;;;5033570;28;20468;-72
2021/03/03 05:20:39;;;;;;;35.00;27.80;;;4.40;99.90;;;;;;5036236;28;20499;-72
2021/03/03 05:23:06;;;;;;;40.87;28.60;;;4.40;99.90;;;;;;5042802;28;20467;-72
2021/03/03 05:25:33;;;;;;;32.57;27.43;;;4.40;99.90;;;;;;5041162;28;20463;-73
2021/03/03 05:27:59;;;;;;;29.50;25.50;;;4.50;99.90;;;;;;5039027;28;20456;-72
2021/03/03 05:30:27;;;;;;;32.40;27.10;;;4.50;99.90;;;;;;5038309;28;20464;-73
2021/03/03 05:32:53;;;;;;;33.37;26.83;;;4.50;99.90;;;;;;5036495;28;20463;-75
2021/03/03 05:35:21;;;;;;;41.90;27.90;;;4.60;99.90;;;;;;5039021;28;20471;-75
2021/03/03 05:37:47;;;;;;;28.27;24.90;;;4.60;99.90;;;;;;5035893;28;21046;-76
2021/03/03 05:40:15;;;;;;;50.03;28.00;;;4.60;99.90;;;;;;5039911;28;20448;-76
2021/03/03 05:42:41;;;;;;;43.17;27.63;;;4.60;99.90;;;;;;5036921;28;20467;-72
2021/03/03 05:45:09;;;;;;;43.43;28.37;;;4.60;99.90;;;;;;5039081;28;20455;-72
2021/03/03 05:47:37;;;;;;;48.00;29.27;;;4.50;99.90;;;;;;5044978;28;20840;-73
2021/03/03 05:50:05;;;;;;;43.90;28.20;;;4.50;99.90;;;;;;5033456;28;20469;-73
2021/03/03 05:52:34;;;;;;;40.33;28.27;;;4.40;99.90;;;;;;5042194;28;20490;-74
2021/03/03 05:55:02;;;;;;;41.90;27.40;;;4.40;99.90;;;;;;5039589;28;20474;-72
2021/03/03 05:57:30;;;;;;;44.60;29.20;;;4.40;99.90;;;;;;5033500;28;20460;-76
2021/03/03 05:59:57;;;;;;;49.30;30.10;;;4.40;99.90;;;;;;5035064;28;20966;-72
2021/03/03 06:02:24;;;;;;;44.10;28.40;;;4.40;99.90;;;;;;5039908;28;20466;-75
2021/03/03 06:04:52;;;;;;;46.70;28.90;;;4.40;99.90;;;;;;5038323;28;20990;-73
2021/03/03 06:07:20;;;;;;;35.87;27.47;;;4.40;99.90;;;;;;5037172;28;20471;-76
2021/03/03 06:09:48;;;;;;;39.17;26.70;;;4.30;99.90;;;;;;5033770;28;20492;-75
2021/03/03 06:12:14;;;;;;;47.47;30.07;;;4.30;99.90;;;;;;5037682;28;20459;-76
2021/03/03 06:14:41;;;;;;;38.43;28.23;;;4.30;99.90;;;;;;5031934;28;20864;-76
2021/03/03 06:17:07;;;;;;;35.03;26.80;;;4.30;99.90;;;;;;5042069;28;20464;-73
2021/03/03 06:19:34;;;;;;;30.53;26.20;;;4.30;99.90;;;;;;5039884;28;20463;-75
2021/03/03 06:22:22;;;;;;;31.80;27.87;;;4.20;99.90;;;;;;5034890;28;20514;-74
2021/03/03 06:24:50;;;;;;;36.23;26.63;;;4.20;99.90;;;;;;5035608;28;20550;-71
2021/03/03 06:27:16;;;;;;;41.43;28.07;;;4.20;99.90;;;;;;5036983;28;20488;-73
2021/03/03 06:30:01;;;;;;;41.47;30.50;;;4.20;99.90;;;;;;5034888;28;20469;-73
2021/03/03 06:32:27;;;;;;;48.73;29.27;;;4.20;99.90;;;;;;5041367;28;20486;-73
2021/03/03 06:34:54;;;;;;;30.17;27.03;;;4.30;99.90;;;;;;5036895;28;20460;-76
2021/03/03 06:37:20;;;;;;;39.80;29.10;;;4.30;99.90;;;;;;5034706;28;20463;-73
2021/03/03 06:40:09;;;;;;;39.90;28.60;;;4.20;99.90;;;;;;5038380;28;20821;-74
2021/03/03 06:42:35;;;;;;;39.13;29.90;;;4.30;99.90;;;;;;5029681;28;20464;-73
2021/03/03 06:45:03;;;;;;;59.13;31.47;;;4.30;99.90;;;;;;5033394;28;20516;-75
2021/03/03 06:47:29;;;;;;;48.63;34.47;;;4.30;99.90;;;;;;5035897;28;20464;-73
2021/03/03 06:50:11;;;;;;;36.13;28.30;;;4.40;99.90;;;;;;5036109;28;20480;-76
2021/03/03 06:52:39;;;;;;;39.43;29.00;;;4.40;99.90;;;;;;5040201;28;20502;-75
2021/03/03 06:55:08;;;;;;;36.43;29.53;;;4.40;99.90;;;;;;5029091;28;20467;-76
2021/03/03 06:57:35;;;;;;;41.03;27.70;;;4.50;99.90;;;;;;5034529;28;20468;-73
2021/03/03 07:00:04;;;;;;;39.63;28.60;;;4.50;99.90;;;;;;5034987;28;20460;-73
2021/03/03 07:02:31;;;;;;;37.20;31.40;;;4.50;99.90;;;;;;5023628;28;20476;-72
2021/03/03 07:04:58;;;;;;;30.93;27.67;;;4.60;99.90;;;;;;5029366;28;20468;-75
2021/03/03 07:07:25;;;;;;;39.57;28.50;;;4.60;99.90;;;;;;5040951;28;20475;-75
2021/03/03 07:09:53;;;;;;;37.23;27.83;;;4.60;99.90;;;;;;5038850;28;20472;-76
2021/03/03 07:12:23;;;;;;;41.73;28.37;;;4.70;99.90;;;;;;5035251;28;20556;-74
2021/03/03 07:14:57;;;;;;;44.20;29.67;;;4.70;99.90;;;;;;5032792;28;20563;-76
2021/03/03 07:17:24;;;;;;;33.00;29.17;;;4.90;99.90;;;;;;5040231;28;20491;-72
2021/03/03 07:19:51;;;;;;;39.23;28.53;;;4.90;99.90;;;;;;5037425;28;20487;-76
2021/03/03 07:22:23;;;;;;;41.63;27.60;;;5.00;99.90;;;;;;5034601;28;20491;-75
2021/03/03 07:24:52;;;;;;;42.20;28.20;;;5.10;99.90;;;;;;5034826;28;20471;-74
2021/03/03 07:27:21;;;;;;;41.50;29.37;;;5.10;99.90;;;;;;5036370;28;20901;-75
2021/03/03 07:29:53;;;;;;;39.53;29.30;;;5.10;99.90;;;;;;5026636;28;20529;-76
2021/03/03 07:32:21;;;;;;;40.33;28.73;;;5.20;99.90;;;;;;5038082;28;20469;-75
2021/03/03 07:34:49;;;;;;;44.27;30.63;;;5.40;99.90;;;;;;5035725;28;20464;-76
2021/03/03 07:37:18;;;;;;;46.53;29.93;;;5.70;99.90;;;;;;5030287;28;21002;-74
2021/03/03 07:39:49;;;;;;;41.70;29.23;;;5.90;99.90;;;;;;5041777;28;20464;-75
2021/03/03 07:42:21;;;;;;;44.80;29.80;;;6.10;99.90;;;;;;5038434;28;20495;-74
2021/03/03 07:44:49;;;;;;;42.23;30.50;;;6.30;99.90;;;;;;5035259;28;20453;-74
2021/03/03 07:47:17;;;;;;;105.03;51.10;;;6.50;99.90;;;;;;5036318;28;20474;-75
2021/03/03 07:49:45;;;;;;;82.40;46.40;;;6.70;99.90;;;;;;5036460;28;20457;-74
2021/03/03 07:52:13;;;;;;;44.77;30.50;;;6.80;99.90;;;;;;5037050;28;20563;-75
2021/03/03 07:54:39;;;;;;;48.43;29.37;;;7.00;99.90;;;;;;5030838;28;20551;-74
2021/03/03 07:57:08;;;;;;;53.63;31.90;;;7.10;99.90;;;;;;5028509;28;20978;-77
2021/03/03 07:59:37;;;;;;;49.17;29.30;;;7.20;99.90;;;;;;5035582;28;21159;-76
2021/03/03 08:02:04;;;;;;;45.50;27.57;;;7.40;99.90;;;;;;5034402;28;20500;-76
2021/03/03 08:04:39;;;;;;;39.13;27.90;;;7.50;99.90;;;;;;5029802;28;20478;-76
2021/03/03 08:07:15;;;;;;;54.73;30.77;;;7.70;99.90;;;;;;5033358;28;21002;-73
2021/03/03 08:10:28;;;;;;;46.20;29.60;;;7.90;99.90;;;;;;5031119;28;20517;-75
2021/03/03 08:13:02;;;;;;;40.00;28.73;;;8.20;99.90;;;;;;5029303;28;20460;-76
2021/03/03 08:15:43;;;;;;;63.07;31.07;;;8.50;99.90;;;;;;5027316;28;20529;-75
2021/03/03 08:18:24;;;;;;;54.23;30.80;;;8.70;99.90;;;;;;5028110;28;20465;-75
2021/03/03 08:20:52;;;;;;;50.73;31.87;;;8.80;99.90;;;;;;5036937;28;20490;-76
2021/03/03 08:23:41;;;;;;;57.43;32.10;;;9.00;99.90;;;;;;5037746;28;20461;-76
2021/03/03 08:26:11;;;;;;;46.27;29.97;;;9.20;99.90;;;;;;5036435;28;20491;-74
2021/03/03 08:28:38;;;;;;;57.07;31.50;;;9.50;99.90;;;;;;5033415;28;20467;-75
2021/03/03 08:31:31;;;;;;;49.10;30.03;;;9.70;99.90;;;;;;5037029;28;20529;-74
2021/03/03 08:34:05;;;;;;;34.77;30.50;;;10.00;99.90;;;;;;5032844;28;20474;-73
2021/03/03 08:36:50;;;;;;;43.07;29.10;;;10.20;99.90;;;;;;5032587;28;20514;-75
2021/03/03 08:39:31;;;;;;;39.47;28.00;;;10.20;99.90;;;;;;5028977;28;20500;-72
2021/03/03 08:41:57;;;;;;;36.73;26.93;;;10.40;99.90;;;;;;5029756;28;20491;-74
2021/03/03 08:44:24;;;;;;;32.87;28.30;;;10.50;99.90;;;;;;5032925;28;20490;-75
2021/03/03 08:46:52;;;;;;;32.30;27.60;;;10.60;99.90;;;;;;5032932;28;20886;-73
2021/03/03 08:49:31;;;;;;;31.30;27.47;;;10.60;99.90;;;;;;5037291;28;20984;-76
2021/03/03 08:52:11;;;;;;;35.13;31.27;;;10.50;99.90;;;;;;5026081;28;20499;-73
2021/03/03 08:54:48;;;;;;;36.70;28.33;;;10.50;99.90;;;;;;5030809;28;20551;-72
2021/03/03 08:57:31;;;;;;;35.77;28.70;;;10.50;99.90;;;;;;5032428;28;20460;-74
2021/03/03 08:59:58;;;;;;;38.87;27.70;;;10.70;99.90;;;;;;5034410;28;20478;-75
2021/03/03 09:02:36;;;;;;;43.90;27.30;;;10.90;99.90;;;;;;5034222;28;21122;-75
2021/03/03 09:05:08;;;;;;;64.60;38.13;;;11.10;99.90;;;;;;5027599;28;20869;-74
2021/03/03 09:07:35;;;;;;;43.20;31.30;;;11.10;99.90;;;;;;5028820;28;20575;-73
2021/03/03 09:10:03;;;;;;;34.47;28.73;;;11.20;99.90;;;;;;5031140;28;20487;-75
2021/03/03 09:12:31;;;;;;;67.10;35.50;;;11.40;99.90;;;;;;5031477;28;20490;-74
2021/03/03 09:15:00;;;;;;;44.60;29.83;;;11.50;99.90;;;;;;5032389;28;20495;-74
2021/03/03 09:17:29;;;;;;;36.93;27.70;;;11.70;99.90;;;;;;5030952;28;20877;-73
2021/03/03 09:19:57;;;;;;;32.50;27.63;;;11.90;99.90;;;;;;5034591;28;20487;-74
2021/03/03 09:22:26;;;;;;;39.57;28.90;;;11.90;99.90;;;;;;5036468;28;20590;-76
2021/03/03 09:24:55;;;;;;;34.97;29.40;;;12.00;99.90;;;;;;5030209;28;20467;-74
2021/03/03 09:27:23;;;;;;;44.00;32.70;;;12.10;99.90;;;;;;5030702;28;20456;-75
2021/03/03 09:29:50;;;;;;;37.33;30.43;;;12.20;99.90;;;;;;5031145;28;20469;-73
2021/03/03 09:32:20;;;;;;;44.80;28.63;;;12.50;99.90;;;;;;5041033;28;20810;-74
2021/03/03 09:34:49;;;;;;;31.43;28.23;;;12.50;99.90;;;;;;5038125;28;20513;-74
2021/03/03 09:37:16;;;;;;;33.37;29.97;;;12.60;99.90;;;;;;5027025;28;20968;-74
2021/03/03 09:39:50;;;;;;;35.40;28.60;;;12.60;99.90;;;;;;5027190;28;20460;-75
2021/03/03 09:42:17;;;;;;;32.33;28.40;;;12.80;99.90;;;;;;5029258;28;21023;-73
2021/03/03 09:44:48;;;;;;;36.07;29.53;;;12.90;99.90;;;;;;5026435;28;20464;-74
2021/03/03 09:47:26;;;;;;;33.03;27.93;;;13.10;99.90;;;;;;5034370;28;20465;-74
2021/03/03 09:49:54;;;;;;;36.47;29.60;;;13.30;99.90;;;;;;5036259;28;20463;-75
2021/03/03 09:52:21;;;;;;;39.33;29.43;;;13.50;99.90;;;;;;5034101;28;20463;-74
2021/03/03 09:54:48;;;;;;;37.97;32.13;;;13.40;99.90;;;;;;5031785;28;20981;-73
2021/03/03 09:57:20;;;;;;;37.80;30.50;;;13.40;99.90;;;;;;5027363;28;20479;-75
2021/03/03 09:59:49;;;;;;;33.77;30.07;;;13.60;99.90;;;;;;5031894;28;20467;-73
2021/03/03 10:02:18;;;;;;;41.87;30.60;;;13.70;99.90;;;;;;5032879;28;21010;-75
2021/03/03 10:04:45;;;;;;;35.43;31.50;;;13.60;99.90;;;;;;5034495;28;20468;-73
2021/03/03 10:07:14;;;;;;;39.77;33.00;;;13.50;99.90;;;;;;5031040;28;20844;-73
2021/03/03 10:09:43;;;;;;;45.30;30.43;;;13.70;99.90;;;;;;5033538;28;20806;-75
2021/03/03 10:12:11;;;;;;;43.50;33.63;;;13.80;99.90;;;;;;5031842;28;20461;-74
2021/03/03 10:14:53;;;;;;;41.10;32.53;;;14.00;99.90;;;;;;5028013;28;20467;-75
2021/03/03 10:17:31;;;;;;;37.00;32.70;;;14.50;99.90;;;;;;5033638;28;20477;-76
2021/03/03 10:19:58;;;;;;;56.53;35.10;;;15.00;99.90;;;;;;5033109;28;20495;-74
2021/03/03 10:22:26;;;;;;;42.73;33.30;;;15.40;99.90;;;;;;5026902;28;20488;-73
2021/03/03 10:24:57;;;;;;;46.43;35.10;;;15.50;99.90;;;;;;5027977;28;20811;-73
2021/03/03 10:27:24;;;;;;;41.03;34.30;;;15.80;99.90;;;;;;5029941;28;20464;-75
2021/03/03 10:29:51;;;;;;;44.77;35.00;;;15.80;99.90;;;;;;5030943;28;20457;-74
2021/03/03 10:32:17;;;;;;;52.37;35.40;;;15.80;99.90;;;;;;5038276;28;20518;-77
2021/03/03 10:34:45;;;;;;;52.93;36.07;;;16.10;99.90;;;;;;5036083;28;20751;-74
2021/03/03 10:37:23;;;;;;;48.17;35.60;;;16.50;99.90;;;;;;5030001;28;20902;-76
2021/03/03 10:39:51;;;;;;;46.23;35.97;;;16.70;99.90;;;;;;5037170;28;20511;-74
2021/03/03 10:42:22;;;;;;;44.30;36.80;;;16.80;99.90;;;;;;5028255;28;20497;-74
2021/03/03 10:44:52;;;;;;;40.00;34.77;;;17.10;99.90;;;;;;5034084;28;20482;-74
2021/03/03 10:47:40;;;;;;;43.07;34.57;;;17.40;99.90;;;;;;5029110;28;21261;-74
2021/03/03 10:50:09;;;;;;;40.43;34.80;;;17.60;99.90;;;;;;5025290;28;20987;-74
2021/03/03 10:52:36;;;;;;;43.23;35.57;;;17.40;99.90;;;;;;5029863;28;21039;-74
2021/03/03 10:55:19;;;;;;;45.77;36.17;;;17.80;99.90;;;;;;5029549;28;20463;-76
2021/03/03 10:58:06;;;;;;;43.83;35.33;;;18.00;99.90;;;;;;5026376;28;20463;-75
2021/03/03 11:00:33;;;;;;;41.17;33.87;;;18.10;99.90;;;;;;5018513;28;20469;-73
2021/03/03 11:03:04;;;;;;;51.50;38.10;;;18.10;99.90;;;;;;5021013;28;20503;-74
2021/03/03 11:05:31;;;;;;;41.03;36.57;;;18.20;99.90;;;;;;5027294;28;20825;-74
2021/03/03 11:07:58;;;;;;;43.53;34.90;;;18.20;99.90;;;;;;5023107;28;20473;-75
2021/03/03 11:10:25;;;;;;;40.47;33.10;;;18.70;99.90;;;;;;5024577;28;20889;-76
2021/03/03 11:12:52;;;;;;;41.80;33.43;;;19.20;99.90;;;;;;5020687;28;20522;-75
2021/03/03 11:15:18;;;;;;;41.00;34.27;;;19.40;99.90;;;;;;5021669;28;20464;-76
2021/03/03 11:17:45;;;;;;;43.40;33.93;;;19.60;99.90;;;;;;5033019;28;20463;-75
2021/03/03 11:20:12;;;;;;;38.63;34.60;;;19.60;99.90;;;;;;5030911;28;20488;-76
2021/03/03 11:22:39;;;;;;;44.17;33.70;;;19.40;99.90;;;;;;5028550;28;20515;-75
2021/03/03 11:25:06;;;;;;;39.50;34.17;;;19.40;99.90;;;;;;5031104;28;20461;-75
2021/03/03 11:27:34;;;;;;;41.90;34.60;;;20.10;99.90;;;;;;5031446;28;20548;-74
2021/03/03 11:30:03;;;;;;;48.77;33.90;;;19.60;99.90;;;;;;5022547;28;20815;-75
2021/03/03 11:32:30;;;;;;;42.80;33.60;;;20.20;99.90;;;;;;5026282;28;20464;-75
2021/03/03 11:34:56;;;;;;;48.43;34.10;;;20.60;99.90;;;;;;5029435;28;20954;-74
2021/03/03 11:37:23;;;;;;;41.50;34.33;;;20.60;99.90;;;;;;5025231;28;20464;-73
2021/03/03 11:39:51;;;;;;;53.50;33.53;;;20.60;99.90;;;;;;5027969;28;20821;-78
2021/03/03 11:42:18;;;;;;;46.90;34.53;;;20.80;99.90;;;;;;5027521;28;20542;-74
2021/03/03 11:44:45;;;;;;;41.53;34.90;;;20.70;99.40;;;;;;5034911;28;20477;-75
2021/03/03 11:47:11;;;;;;;46.00;35.00;;;20.40;99.80;;;;;;5029949;28;20522;-75
2021/03/03 11:49:38;;;;;;;42.00;31.53;;;20.60;99.20;;;;;;5029737;28;20977;-74
2021/03/03 11:52:05;;;;;;;40.40;32.70;;;20.90;99.10;;;;;;5028954;28;20939;-75
2021/03/03 11:54:31;;;;;;;47.97;34.70;;;20.70;98.70;;;;;;5026580;28;20456;-74
2021/03/03 11:56:57;;;;;;;49.07;33.07;;;20.90;98.30;;;;;;5036433;28;20839;-76
2021/03/03 11:59:23;;;;;;;43.00;33.80;;;20.20;97.90;;;;;;5031758;28;20507;-77
2021/03/03 12:01:52;;;;;;;44.37;33.33;;;20.20;98.40;;;;;;5032644;28;20969;-78
2021/03/03 12:04:19;;;;;;;42.27;33.20;;;20.20;98.20;;;;;;5033181;28;21013;-77
2021/03/03 12:06:46;;;;;;;39.40;33.63;;;20.20;98.60;;;;;;5033252;28;20877;-77
2021/03/03 12:09:12;;;;;;;45.53;34.00;;;20.10;98.80;;;;;;5026350;28;21028;-73
2021/03/03 12:11:38;;;;;;;44.70;32.80;;;20.10;98.90;;;;;;5036401;28;20495;-73
2021/03/03 12:14:05;;;;;;;42.77;32.90;;;20.10;99.20;;;;;;5035801;28;20468;-73
2021/03/03 12:16:31;;;;;;;43.93;33.40;;;20.30;97.80;;;;;;5035391;28;21018;-73
2021/03/03 12:18:58;;;;;;;37.90;33.77;;;20.50;97.90;;;;;;5031416;28;20451;-76
2021/03/03 12:21:25;;;;;;;48.17;33.40;;;20.60;97.80;;;;;;5033371;28;21131;-73
2021/03/03 12:23:51;;;;;;;40.97;31.00;;;20.40;97.50;;;;;;5029161;28;20468;-75
2021/03/03 12:26:18;;;;;;;47.03;31.73;;;20.50;97.30;;;;;;5034830;28;20461;-77
2021/03/03 12:28:44;;;;;;;43.50;33.67;;;20.10;97.00;;;;;;5029703;28;20457;-73
2021/03/03 12:31:12;;;;;;;49.80;32.70;;;19.80;97.40;;;;;;5038059;28;20521;-74
2021/03/03 12:33:39;;;;;;;48.73;36.10;;;20.30;97.00;;;;;;5033559;28;21069;-75
2021/03/03 12:36:07;;;;;;;42.27;33.10;;;20.70;96.40;;;;;;5034670;28;20846;-75
2021/03/03 12:38:33;;;;;;;45.70;33.53;;;20.90;96.20;;;;;;5029029;28;20460;-76
2021/03/03 12:41:00;;;;;;;44.03;32.60;;;20.80;95.60;;;;;;5042849;28;20460;-73